Time;durP1;ratioP1;P1;durP2;ratioP2;P2;SDS_P1;SDS_P2;PMS_P1;PMS_P2;Temp;Humidity;BMP_temperature;BMP_pressure;BME280_temperature;BME280_humidity;BME280_pressure;Samples;Min_cycle;Max_cycle;Signal;HPM_P1;HPM_P2
2022/09/06 00:01:13;;;;;;;12.30;9.80;;;;;;;17.14;100.00;101401.41;5224732;28;20033;-68
2022/09/06 00:03:44;;;;;;;14.10;9.85;;;;;;;17.24;100.00;101418.44;5228517;28;20486;-68
2022/09/06 00:06:17;;;;;;;13.93;9.43;;;;;;;17.14;100.00;101468.81;5228279;28;20091;-68
2022/09/06 00:08:49;;;;;;;11.93;9.75;;;;;;;17.10;100.00;101470.94;5221639;28;20134;-69
2022/09/06 00:11:20;;;;;;;10.38;9.00;;;;;;;16.96;100.00;101482.19;5226126;28;20120;-68
2022/09/06 00:13:51;;;;;;;11.13;9.57;;;;;;;16.97;100.00;101497.34;5233735;28;20048;-68
2022/09/06 00:16:23;;;;;;;10.68;9.10;;;;;;;16.86;100.00;101511.84;5230789;28;20030;-68
2022/09/06 00:18:55;;;;;;;13.93;10.52;;;;;;;16.96;100.00;101504.59;5222995;28;20220;-68
2022/09/06 00:21:29;;;;;;;14.60;10.80;;;;;;;16.88;100.00;101509.88;5217226;28;20055;-68
2022/09/06 00:24:00;;;;;;;13.85;9.65;;;;;;;16.84;100.00;101546.19;5227002;28;20036;-68
2022/09/06 00:26:31;;;;;;;15.13;11.50;;;;;;;16.92;100.00;101532.84;5220732;28;20326;-69
2022/09/06 00:29:03;;;;;;;13.63;10.98;;;;;;;16.87;100.00;101526.19;5213825;28;20613;-69
2022/09/06 00:31:34;;;;;;;14.65;11.60;;;;;;;16.84;100.00;101530.84;5212164;28;20551;-69
2022/09/06 00:34:05;;;;;;;16.95;11.88;;;;;;;16.93;100.00;101539.06;5228328;28;20037;-69
2022/09/06 00:36:37;;;;;;;14.82;11.57;;;;;;;16.88;100.00;101531.44;5224538;28;20037;-69
2022/09/06 00:39:08;;;;;;;14.57;11.40;;;;;;;16.91;100.00;101524.91;5222139;28;20086;-69
2022/09/06 00:41:39;;;;;;;15.50;11.82;;;;;;;16.92;100.00;101522.06;5227429;28;20028;-69
2022/09/06 00:44:10;;;;;;;15.75;11.85;;;;;;;16.98;100.00;101513.41;5231910;28;20034;-68
2022/09/06 00:46:44;;;;;;;13.68;12.00;;;;;;;16.95;100.00;101499.34;5232163;28;20028;-69
2022/09/06 00:49:24;;;;;;;15.65;11.52;;;;;;;16.96;100.00;101504.59;5223407;28;20029;-68
2022/09/06 00:52:00;;;;;;;16.33;12.00;;;;;;;16.98;100.00;101494.53;5229550;28;20379;-69
2022/09/06 00:54:32;;;;;;;15.77;12.10;;;;;;;16.99;100.00;101488.16;5228572;28;20037;-69
2022/09/06 00:57:04;;;;;;;15.27;12.20;;;;;;;16.99;100.00;101484.59;5235772;28;20028;-68
2022/09/06 00:59:37;;;;;;;16.98;13.18;;;;;;;17.02;100.00;101487.00;5227840;28;20586;-68
2022/09/06 01:02:10;;;;;;;17.20;12.68;;;;;;;17.01;100.00;101472.69;5229145;28;20036;-69
2022/09/06 01:04:43;;;;;;;14.68;12.55;;;;;;;17.05;100.00;101470.56;5227377;28;20021;-68
2022/09/06 01:07:21;;;;;;;15.85;13.15;;;;;;;17.03;100.00;101461.75;5228704;28;20045;-68
2022/09/06 01:10:22;;;;;;;15.70;12.88;;;;;;;17.01;100.00;101456.50;5231137;28;20060;-68
2022/09/06 01:12:54;;;;;;;16.20;12.90;;;;;;;17.04;100.00;101461.59;5228055;28;20041;-68
2022/09/06 01:15:47;;;;;;;18.42;12.50;;;;;;;16.94;100.00;101457.22;5232048;28;20060;-68
2022/09/06 01:18:38;;;;;;;13.63;11.70;;;;;;;16.86;100.00;101444.47;5231103;28;20059;-68
2022/09/06 01:21:25;;;;;;;14.38;12.02;;;;;;;16.84;100.00;101438.38;5216506;28;20304;-68
2022/09/06 01:24:13;;;;;;;16.45;12.45;;;;;;;16.89;100.00;101413.69;5219579;28;20638;-68
2022/09/06 01:27:09;;;;;;;16.35;12.82;;;;;;;16.91;100.00;101385.56;5219945;28;20034;-68
2022/09/06 01:29:50;;;;;;;16.55;14.13;;;;;;;16.89;100.00;101367.84;5212579;28;20845;-68
2022/09/06 01:32:55;;;;;;;20.90;14.88;;;;;;;16.85;100.00;101349.25;5222249;28;20021;-68
2022/09/06 01:35:34;;;;;;;;;;;;;;;16.87;100.00;101341.03;5226350;28;20036;-68
2022/09/06 01:38:07;;;;;;;17.85;13.60;;;;;;;16.98;100.00;101338.16;5230152;28;19917;-68
2022/09/06 01:40:38;;;;;;;19.30;14.73;;;;;;;16.89;100.00;101330.97;5227152;28;20479;-68
2022/09/06 01:43:15;;;;;;;18.30;15.05;;;;;;;16.84;100.00;101317.94;5223916;28;20052;-68
2022/09/06 01:46:01;;;;;;;18.58;14.70;;;;;;;16.93;100.00;101316.22;5225081;28;20031;-68
2022/09/06 01:48:48;;;;;;;17.65;14.25;;;;;;;16.92;100.00;101300.19;5222075;28;20033;-68
2022/09/06 01:51:44;;;;;;;19.15;14.25;;;;;;;16.92;100.00;101286.72;5218228;28;20386;-68
2022/09/06 01:54:43;;;;;;;15.43;12.75;;;;;;;16.78;100.00;101266.41;5220154;28;20037;-68
2022/09/06 01:57:53;;;;;;;14.57;12.63;;;;;;;16.81;100.00;101258.06;5227331;28;20394;-68
2022/09/06 02:00:25;;;;;;;16.95;13.05;;;;;;;16.87;100.00;101264.72;5221105;28;20488;-68
2022/09/06 02:03:25;;;;;;;13.02;11.65;;;;;;;16.64;100.00;101282.09;5228656;28;20056;-68
2022/09/06 02:06:05;;;;;;;14.43;11.13;;;;;;;16.64;100.00;101340.50;5224597;28;20088;-67
2022/09/06 02:08:51;;;;;;;14.70;12.43;;;;;;;16.65;100.00;101358.38;5227142;28;20804;-67
2022/09/06 02:11:24;;;;;;;15.07;12.18;;;;;;;16.63;100.00;101306.47;5228380;28;20033;-68
2022/09/06 02:14:07;;;;;;;13.60;11.52;;;;;;;16.57;100.00;101320.53;5224480;28;20033;-68
2022/09/06 02:16:43;;;;;;;14.20;12.13;;;;;;;16.66;100.00;101323.22;5231732;28;20479;-68
2022/09/06 02:19:28;;;;;;;15.20;12.52;;;;;;;16.69;100.00;101321.22;5227789;28;20053;-68
2022/09/06 02:22:05;;;;;;;16.48;13.68;;;;;;;16.71;100.00;101317.38;5233053;28;20044;-68
2022/09/06 02:24:39;;;;;;;16.65;12.48;;;;;;;16.62;100.00;101318.25;5239514;28;20110;-67
2022/09/06 02:27:11;;;;;;;15.82;13.68;;;;;;;16.61;100.00;101321.94;5228628;28;20478;-68
2022/09/06 02:29:43;;;;;;;14.30;12.73;;;;;;;16.60;100.00;101314.84;5229444;28;20066;-68
2022/09/06 02:32:21;;;;;;;14.85;12.55;;;;;;;16.59;100.00;101322.09;5233411;28;20208;-68
2022/09/06 02:34:55;;;;;;;15.48;12.70;;;;;;;16.39;100.00;101313.19;5233898;28;20029;-67
2022/09/06 02:37:26;;;;;;;;;;;;;;;16.46;100.00;101300.84;5226618;28;20053;-67
2022/09/06 02:39:58;;;;;;;14.18;11.88;;;;;;;16.31;100.00;101299.59;5231476;28;19923;-67
2022/09/06 02:42:30;;;;;;;16.25;12.98;;;;;;;16.44;100.00;101297.44;5233519;28;20091;-68
2022/09/06 02:45:01;;;;;;;13.27;11.90;;;;;;;16.23;100.00;101300.31;5228011;28;20041;-68
2022/09/06 02:47:32;;;;;;;15.95;12.40;;;;;;;16.32;100.00;101306.69;5236718;28;20097;-67
2022/09/06 02:50:05;;;;;;;15.10;12.93;;;;;;;16.24;100.00;101306.53;5233624;28;20085;-67
2022/09/06 02:52:36;;;;;;;16.35;12.98;;;;;;;16.23;100.00;101308.38;5235072;28;20025;-67
2022/09/06 02:55:08;;;;;;;16.58;13.35;;;;;;;16.25;100.00;101314.47;5228722;28;20087;-67
2022/09/06 02:57:39;;;;;;;15.00;13.30;;;;;;;16.22;100.00;101308.53;5222701;28;20034;-67
2022/09/06 03:00:11;;;;;;;16.88;13.57;;;;;;;16.30;100.00;101310.50;5229843;28;20052;-67
2022/09/06 03:02:42;;;;;;;16.83;14.48;;;;;;;16.34;100.00;101311.91;5238866;28;20033;-68
2022/09/06 03:05:14;;;;;;;20.27;15.57;;;;;;;16.29;100.00;101315.03;5231238;28;20029;-68
2022/09/06 03:07:45;;;;;;;19.00;15.35;;;;;;;16.40;100.00;101316.75;5236693;28;20076;-68
2022/09/06 03:10:17;;;;;;;19.13;15.23;;;;;;;16.38;100.00;101307.97;5220890;28;20037;-68
2022/09/06 03:12:48;;;;;;;18.80;15.38;;;;;;;16.46;100.00;101318.84;5223170;28;20043;-67
2022/09/06 03:15:19;;;;;;;18.98;15.55;;;;;;;16.48;100.00;101306.09;5223966;28;20017;-67
2022/09/06 03:17:51;;;;;;;17.58;14.77;;;;;;;16.42;100.00;101312.06;5229677;28;20037;-67
2022/09/06 03:20:22;;;;;;;18.55;14.73;;;;;;;16.38;100.00;101313.34;5217848;28;20061;-67
2022/09/06 03:22:53;;;;;;;15.80;14.00;;;;;;;16.33;100.00;101310.22;5223171;28;20309;-67
2022/09/06 03:25:25;;;;;;;17.52;14.77;;;;;;;16.37;100.00;101317.00;5233702;28;20090;-67
2022/09/06 03:27:56;;;;;;;15.20;13.57;;;;;;;16.22;100.00;101317.47;5222588;28;20107;-67
2022/09/06 03:30:28;;;;;;;18.05;13.82;;;;;;;16.11;100.00;101320.31;5219493;28;20053;-67
2022/09/06 03:33:00;;;;;;;15.63;13.68;;;;;;;16.18;100.00;101315.19;5227462;28;20483;-67
2022/09/06 03:35:31;;;;;;;16.60;13.15;;;;;;;16.07;100.00;101310.81;5218551;28;21190;-67
2022/09/06 03:38:02;;;;;;;15.45;12.60;;;;;;;16.14;100.00;101317.31;5218533;28;20075;-67
2022/09/06 03:40:33;;;;;;;17.63;13.82;;;;;;;16.10;100.00;101310.50;5214904;28;20033;-68
2022/09/06 03:43:05;;;;;;;19.55;14.63;;;;;;;16.08;100.00;101305.25;5220803;28;20045;-67
2022/09/06 03:45:36;;;;;;;18.58;13.77;;;;;;;16.06;100.00;101309.09;5227953;28;20054;-67
2022/09/06 03:48:07;;;;;;;16.13;13.32;;;;;;;16.02;100.00;101303.16;5229863;28;20478;-68
2022/09/06 03:50:43;;;;;;;17.30;14.52;;;;;;;16.07;100.00;101313.50;5228433;28;20091;-68
2022/09/06 03:53:16;;;;;;;17.63;14.63;;;;;;;16.00;100.00;101312.38;5223958;28;20028;-67
2022/09/06 03:55:52;;;;;;;19.70;13.90;;;;;;;15.91;100.00;101305.13;5223046;28;20064;-67
2022/09/06 03:58:28;;;;;;;17.23;14.23;;;;;;;15.85;100.00;101320.84;5224556;28;20388;-67
2022/09/06 04:01:06;;;;;;;17.70;14.02;;;;;;;15.89;100.00;101324.09;5221958;28;20033;-67
2022/09/06 04:03:38;;;;;;;15.90;13.63;;;;;;;15.80;100.00;101322.25;5230988;28;20475;-67
2022/09/06 04:06:10;;;;;;;14.02;12.40;;;;;;;15.74;100.00;101326.34;5219270;28;20712;-67
2022/09/06 04:08:41;;;;;;;18.27;13.52;;;;;;;15.66;100.00;101318.94;5221231;28;20076;-67
2022/09/06 04:11:13;;;;;;;18.05;13.73;;;;;;;15.66;100.00;101321.63;5211478;28;20364;-67
2022/09/06 04:13:44;;;;;;;15.98;13.57;;;;;;;15.61;100.00;101331.09;5213877;28;20073;-68
2022/09/06 04:16:17;;;;;;;15.75;13.05;;;;;;;15.54;100.00;101327.28;5234111;28;20433;-67
2022/09/06 04:18:48;;;;;;;17.55;14.20;;;;;;;15.58;100.00;101336.78;5231464;28;20036;-67
2022/09/06 04:21:19;;;;;;;19.92;14.50;;;;;;;15.59;100.00;101346.53;5220985;28;20611;-67
2022/09/06 04:23:51;;;;;;;17.70;14.70;;;;;;;15.51;100.00;101346.38;5221613;28;21365;-67
2022/09/06 04:26:22;;;;;;;19.70;15.43;;;;;;;15.48;100.00;101348.34;5220749;28;20144;-67
2022/09/06 04:28:53;;;;;;;21.02;15.63;;;;;;;15.53;100.00;101347.09;5221676;28;20307;-67
2022/09/06 04:31:25;;;;;;;22.40;16.13;;;;;;;15.45;100.00;101345.09;5217256;28;20406;-67
2022/09/06 04:33:56;;;;;;;18.48;15.88;;;;;;;15.38;100.00;101342.09;5226762;28;20421;-67
2022/09/06 04:36:28;;;;;;;24.42;17.88;;;;;;;15.45;100.00;101342.41;5229281;28;20072;-67
2022/09/06 04:39:00;;;;;;;23.92;18.15;;;;;;;15.35;100.00;101339.69;5235752;28;20029;-67
2022/09/06 04:41:31;;;;;;;21.65;17.80;;;;;;;15.31;100.00;101340.94;5233359;28;20033;-67
2022/09/06 04:44:03;;;;;;;26.13;18.70;;;;;;;15.29;100.00;101343.75;5229991;28;20464;-67
2022/09/06 04:46:34;;;;;;;24.23;19.83;;;;;;;15.38;100.00;101347.47;5233894;28;20037;-67
2022/09/06 04:49:05;;;;;;;23.58;18.83;;;;;;;15.26;100.00;101345.88;5233392;28;20364;-67
2022/09/06 04:51:38;;;;;;;25.15;19.48;;;;;;;15.28;100.00;101346.56;5229947;28;20422;-67
2022/09/06 04:54:09;;;;;;;22.33;18.50;;;;;;;15.26;100.00;101343.19;5230646;28;20045;-67
2022/09/06 04:56:40;;;;;;;23.13;19.05;;;;;;;15.17;100.00;101346.66;5232875;28;20030;-67
2022/09/06 04:59:12;;;;;;;23.20;18.75;;;;;;;15.25;100.00;101344.19;5238517;28;20098;-67
2022/09/06 05:01:43;;;;;;;26.73;18.70;;;;;;;15.09;100.00;101348.22;5230269;28;20065;-68
2022/09/06 05:04:14;;;;;;;23.40;18.88;;;;;;;15.10;100.00;101347.22;5239755;28;20033;-67
2022/09/06 05:06:46;;;;;;;25.05;18.83;;;;;;;15.10;100.00;101332.94;5219568;28;20072;-67
2022/09/06 05:09:17;;;;;;;31.38;20.23;;;;;;;15.08;100.00;101334.91;5218399;28;20041;-67
2022/09/06 05:11:48;;;;;;;26.20;20.10;;;;;;;15.14;100.00;101328.16;5230034;28;20497;-66
2022/09/06 05:14:20;;;;;;;26.45;20.33;;;;;;;15.17;100.00;101326.03;5232495;28;20116;-66
2022/09/06 05:16:52;;;;;;;28.45;21.13;;;;;;;15.11;100.00;101337.34;5233888;28;20021;-67
2022/09/06 05:19:23;;;;;;;25.63;19.67;;;;;;;15.04;100.00;101336.16;5235845;28;20086;-67
2022/09/06 05:21:54;;;;;;;25.75;20.75;;;;;;;15.02;100.00;101333.59;5234028;28;20034;-67
2022/09/06 05:24:25;;;;;;;28.00;20.95;;;;;;;15.02;100.00;101336.28;5231595;28;20025;-67
2022/09/06 05:26:57;;;;;;;29.50;20.45;;;;;;;15.15;100.00;101332.50;5226586;28;20025;-67
2022/09/06 05:29:29;;;;;;;29.20;22.27;;;;;;;15.21;100.00;101343.59;5222819;28;20049;-67
2022/09/06 05:32:00;;;;;;;31.15;21.65;;;;;;;15.17;100.00;101339.47;5229244;28;20053;-67
2022/09/06 05:34:32;;;;;;;29.02;21.75;;;;;;;15.11;100.00;101342.72;5239558;28;20041;-67
2022/09/06 05:37:03;;;;;;;29.92;21.98;;;;;;;15.14;100.00;101347.81;5227261;28;20026;-67
2022/09/06 05:39:34;;;;;;;29.40;21.48;;;;;;;15.16;100.00;101343.13;5233217;28;20471;-67
2022/09/06 05:42:06;;;;;;;28.92;21.02;;;;;;;15.20;100.00;101343.72;5227051;28;20045;-67
2022/09/06 05:44:37;;;;;;;28.77;20.63;;;;;;;15.21;100.00;101345.44;5232158;28;20099;-67
2022/09/06 05:47:08;;;;;;;27.02;20.55;;;;;;;15.29;100.00;101350.97;5225791;28;20110;-67
2022/09/06 05:49:40;;;;;;;26.42;21.05;;;;;;;15.23;100.00;101348.84;5225167;28;20143;-67
2022/09/06 05:52:11;;;;;;;25.73;19.83;;;;;;;15.23;100.00;101352.38;5226607;28;20075;-67
2022/09/06 05:54:42;;;;;;;26.85;20.83;;;;;;;15.27;100.00;101352.97;5233516;28;20470;-67
2022/09/06 05:57:14;;;;;;;26.63;20.17;;;;;;;15.22;100.00;101349.81;5233308;28;20026;-67
2022/09/06 05:59:45;;;;;;;24.42;19.67;;;;;;;15.32;100.00;101347.16;5230791;28;20032;-67
2022/09/06 06:02:16;;;;;;;28.58;20.48;;;;;;;15.40;100.00;101356.25;5221793;28;20120;-67
2022/09/06 06:04:48;;;;;;;29.02;20.60;;;;;;;15.33;100.00;101348.88;5219058;28;21962;-67
2022/09/06 06:07:19;;;;;;;24.27;19.50;;;;;;;15.39;100.00;101349.16;5214948;28;20029;-68
2022/09/06 06:09:51;;;;;;;28.05;19.92;;;;;;;15.41;100.00;101351.72;5226462;28;20029;-66
2022/09/06 06:12:22;;;;;;;25.83;20.27;;;;;;;15.40;100.00;101348.19;5218910;28;20026;-66
2022/09/06 06:14:53;;;;;;;25.33;19.83;;;;;;;15.43;100.00;101350.59;5218235;28;20021;-66
2022/09/06 06:17:24;;;;;;;25.55;20.08;;;;;;;15.48;100.00;101347.50;5212562;28;20135;-66
2022/09/06 06:19:57;;;;;;;27.17;19.13;;;;;;;15.48;100.00;101353.72;5215105;28;20544;-66
2022/09/06 06:22:28;;;;;;;29.20;20.92;;;;;;;15.57;100.00;101352.06;5216718;28;20037;-66
2022/09/06 06:24:59;;;;;;;25.83;20.17;;;;;;;15.53;100.00;101352.47;5213461;28;20034;-66
2022/09/06 06:27:32;;;;;;;25.67;19.90;;;;;;;15.54;100.00;101346.94;5218790;28;20029;-66
2022/09/06 06:30:04;;;;;;;28.40;19.70;;;;;;;15.54;100.00;101344.25;5233844;28;20655;-66
2022/09/06 06:32:35;;;;;;;30.05;19.42;;;;;;;15.60;100.00;101345.56;5223970;28;20070;-66
2022/09/06 06:35:08;;;;;;;24.48;19.05;;;;;;;15.64;100.00;101330.84;5229496;28;20057;-66
2022/09/06 06:37:41;;;;;;;25.10;19.13;;;;;;;15.62;100.00;101336.34;5236399;28;20060;-66
2022/09/06 06:40:13;;;;;;;23.23;18.77;;;;;;;15.64;100.00;101334.38;5222660;28;21427;-66
2022/09/06 06:42:44;;;;;;;21.20;17.05;;;;;;;15.66;100.00;101331.53;5226982;28;20533;-66
2022/09/06 06:45:15;;;;;;;20.33;16.90;;;;;;;15.68;100.00;101327.72;5231282;28;20030;-66
2022/09/06 06:47:50;;;;;;;26.83;18.27;;;;;;;15.72;100.00;101330.97;5225271;28;20177;-66
2022/09/06 06:50:21;;;;;;;24.63;18.25;;;;;;;15.75;100.00;101329.91;5226650;28;20061;-66
2022/09/06 06:52:53;;;;;;;21.02;17.15;;;;;;;15.74;100.00;101331.72;5228852;28;20612;-66
2022/09/06 06:55:24;;;;;;;22.63;17.10;;;;;;;15.81;100.00;101327.50;5229476;28;20492;-66
2022/09/06 06:57:58;;;;;;;20.88;15.75;;;;;;;15.86;100.00;101336.00;5218712;28;20415;-66
2022/09/06 07:00:29;;;;;;;;;;;;;;;15.87;100.00;101339.53;5227781;28;20064;-66
2022/09/06 07:03:01;;;;;;;20.47;15.47;;;;;;;15.98;100.00;101328.66;5225409;28;20004;-66
2022/09/06 07:05:32;;;;;;;20.65;15.13;;;;;;;16.01;100.00;101327.50;5233003;28;20296;-67
2022/09/06 07:08:04;;;;;;;17.33;12.63;;;;;;;16.04;100.00;101333.47;5220614;28;20034;-67
2022/09/06 07:10:36;;;;;;;14.15;12.00;;;;;;;16.08;100.00;101331.34;5223722;28;20414;-67
2022/09/06 07:13:07;;;;;;;15.30;11.52;;;;;;;16.07;100.00;101327.81;5234195;28;20025;-67
2022/09/06 07:15:38;;;;;;;14.77;11.77;;;;;;;16.15;100.00;101319.03;5227497;28;20025;-67
2022/09/06 07:18:09;;;;;;;13.57;11.18;;;;;;;16.23;100.00;101319.16;5218870;28;20125;-67
2022/09/06 07:20:41;;;;;;;13.90;10.68;;;;;;;16.27;100.00;101330.50;5218421;28;20038;-67
2022/09/06 07:23:12;;;;;;;16.67;11.05;;;;;;;16.33;100.00;101329.06;5240533;28;20076;-67
2022/09/06 07:25:43;;;;;;;14.32;10.15;;;;;;;16.37;100.00;101335.88;5230608;28;20081;-67
2022/09/06 07:28:14;;;;;;;14.20;10.27;;;;;;;16.43;100.00;101332.59;5228562;28;20040;-66
2022/09/06 07:30:46;;;;;;;14.77;10.25;;;;;;;16.50;100.00;101339.13;5222751;28;20079;-67
2022/09/06 07:33:17;;;;;;;13.63;9.38;;;;;;;16.55;100.00;101330.59;5235075;28;20024;-66
2022/09/06 07:36:00;;;;;;;12.30;9.13;;;;;;;16.63;100.00;101333.44;5218913;28;20538;-67
2022/09/06 07:38:32;;;;;;;9.93;8.50;;;;;;;16.70;100.00;101328.28;5230472;28;20034;-67
2022/09/06 07:41:05;;;;;;;11.25;7.70;;;;;;;16.78;100.00;101339.19;5237525;28;20044;-67
2022/09/06 07:43:36;;;;;;;11.10;8.38;;;;;;;16.85;100.00;101345.72;5238565;28;20074;-66
2022/09/06 07:46:13;;;;;;;12.52;7.13;;;;;;;16.92;100.00;101348.72;5241052;28;20033;-67
2022/09/06 07:48:45;;;;;;;8.65;7.25;;;;;;;17.08;100.00;101348.91;5221925;28;20033;-66
2022/09/06 07:51:20;;;;;;;8.65;6.18;;;;;;;17.09;100.00;101341.69;5222503;28;20109;-67
2022/09/06 07:53:54;;;;;;;6.88;5.70;;;;;;;17.13;100.00;101337.72;5224435;28;20084;-66
2022/09/06 07:56:25;;;;;;;10.80;6.05;;;;;;;17.18;100.00;101330.00;5226820;28;20022;-66
2022/09/06 07:58:57;;;;;;;8.50;6.25;;;;;;;17.27;100.00;101328.28;5231213;28;20368;-66
2022/09/06 08:01:36;;;;;;;8.15;5.60;;;;;;;17.27;100.00;101326.41;5238100;28;20489;-67
2022/09/06 08:04:11;;;;;;;7.30;4.90;;;;;;;17.37;100.00;101323.66;5230263;28;20048;-66
2022/09/06 08:06:46;;;;;;;8.40;4.85;;;;;;;17.48;100.00;101322.63;5226185;28;20048;-66
2022/09/06 08:09:18;;;;;;;6.90;4.80;;;;;;;17.52;100.00;101321.31;5228162;28;20062;-67
2022/09/06 08:11:49;;;;;;;8.85;5.70;;;;;;;17.55;100.00;101315.63;5233817;28;20416;-67
2022/09/06 08:14:21;;;;;;;6.95;4.82;;;;;;;17.61;100.00;101321.25;5235331;28;20682;-66
2022/09/06 08:16:52;;;;;;;10.25;6.25;;;;;;;17.78;100.00;101314.19;5222963;28;20034;-66
2022/09/06 08:19:24;;;;;;;6.32;5.15;;;;;;;17.80;100.00;101322.97;5226883;28;20782;-66
2022/09/06 08:21:55;;;;;;;7.22;4.05;;;;;;;17.88;100.00;101321.41;5242421;28;20029;-66
2022/09/06 08:24:27;;;;;;;5.18;4.00;;;;;;;17.87;100.00;101331.31;5232449;28;20063;-66
2022/09/06 08:26:58;;;;;;;5.43;4.05;;;;;;;18.04;100.00;101326.94;5237902;28;20027;-66
2022/09/06 08:29:29;;;;;;;5.20;4.20;;;;;;;18.15;100.00;101333.97;5228148;28;20041;-66
2022/09/06 08:32:01;;;;;;;6.75;3.30;;;;;;;18.20;100.00;101339.78;5234544;28;20040;-66
2022/09/06 08:34:32;;;;;;;5.78;3.83;;;;;;;18.19;100.00;101341.59;5231124;28;20022;-66
2022/09/06 08:37:03;;;;;;;7.63;4.03;;;;;;;18.16;100.00;101333.81;5235282;28;20033;-66
2022/09/06 08:39:34;;;;;;;5.35;3.88;;;;;;;18.22;100.00;101319.69;5220548;28;20519;-66
2022/09/06 08:42:07;;;;;;;6.00;3.70;;;;;;;18.35;100.00;101327.41;5220944;28;20076;-67
2022/09/06 08:44:49;;;;;;;6.45;3.70;;;;;;;18.34;100.00;101335.66;5218749;28;20029;-66
2022/09/06 08:47:21;;;;;;;6.82;3.83;;;;;;;18.48;100.00;101335.09;5224054;28;20038;-66
2022/09/06 08:50:01;;;;;;;6.28;3.15;;;;;;;18.53;100.00;101323.81;5221248;28;20071;-67
2022/09/06 08:52:40;;;;;;;5.20;3.30;;;;;;;18.54;100.00;101326.38;5224641;28;20033;-67
2022/09/06 08:55:30;;;;;;;8.13;3.90;;;;;;;18.65;100.00;101325.25;5227259;28;20053;-66
2022/09/06 08:58:28;;;;;;;5.47;3.60;;;;;;;18.64;100.00;101326.25;5229166;28;20033;-66
2022/09/06 09:01:04;;;;;;;5.00;3.70;;;;;;;18.63;100.00;101323.72;5232631;28;20108;-66
2022/09/06 09:03:38;;;;;;;5.65;3.30;;;;;;;18.94;100.00;101324.09;5226176;28;20390;-66
2022/09/06 09:06:10;;;;;;;5.63;3.55;;;;;;;18.89;100.00;101327.28;5238380;28;20076;-67
2022/09/06 09:08:43;;;;;;;4.18;3.13;;;;;;;19.00;100.00;101324.31;5227737;28;20056;-66
2022/09/06 09:11:17;;;;;;;5.50;3.15;;;;;;;19.11;100.00;101330.44;5223364;28;20037;-64
2022/09/06 09:13:58;;;;;;;6.90;3.80;;;;;;;19.26;100.00;101325.28;5223159;28;20032;-64
2022/09/06 09:16:29;;;;;;;8.07;4.00;;;;;;;19.32;100.00;101319.22;5231439;28;20050;-64
2022/09/06 09:19:03;;;;;;;6.10;3.17;;;;;;;19.41;100.00;101312.81;5226070;28;20029;-64
2022/09/06 09:21:39;;;;;;;;;;;;;;;19.31;100.00;101312.97;5236622;28;20549;-64
2022/09/06 09:24:14;;;;;;;9.45;3.60;;;;;;;19.54;100.00;101317.75;5232732;28;19958;-64
2022/09/06 09:26:54;;;;;;;5.43;3.08;;;;;;;19.77;100.00;101318.88;5227062;28;20041;-64
2022/09/06 09:29:25;;;;;;;4.05;2.60;;;;;;;19.90;100.00;101318.38;5229266;28;20505;-64
2022/09/06 09:31:57;;;;;;;7.75;6.07;;;;;;;19.94;100.00;101321.59;5231277;28;20044;-64
2022/09/06 09:34:34;;;;;;;8.00;5.75;;;;;;;20.28;100.00;101328.75;5224975;28;20461;-64
2022/09/06 09:37:12;;;;;;;5.38;3.30;;;;;;;20.28;100.00;101326.03;5228150;28;20038;-65
2022/09/06 09:39:43;;;;;;;6.18;2.95;;;;;;;20.43;100.00;101326.19;5216871;28;20084;-65
2022/09/06 09:42:26;;;;;;;4.28;2.85;;;;;;;20.57;100.00;101326.34;5216180;28;20057;-65
2022/09/06 09:44:58;;;;;;;4.88;3.17;;;;;;;20.62;100.00;101323.16;5222146;28;20032;-65
2022/09/06 09:47:32;;;;;;;15.40;4.20;;;;;;;20.54;100.00;101320.44;5223425;28;20026;-68
2022/09/06 09:50:26;;;;;;;7.03;3.50;;;;;;;20.66;100.00;101327.22;5221478;28;20037;-72
2022/09/06 09:53:12;;;;;;;5.63;3.55;;;;;;;20.80;100.00;101319.38;5221253;28;20071;-66
2022/09/06 09:55:44;;;;;;;5.00;2.90;;;;;;;21.03;100.00;101320.34;5225479;28;20030;-65
2022/09/06 09:58:35;;;;;;;6.63;3.63;;;;;;;20.88;100.00;101313.94;5237671;28;20032;-65
2022/09/06 10:01:10;;;;;;;7.07;3.05;;;;;;;21.00;100.00;101325.25;5228376;28;20164;-65
2022/09/06 10:03:41;;;;;;;7.47;3.03;;;;;;;21.04;100.00;101316.63;5229758;28;20053;-66
2022/09/06 10:06:14;;;;;;;9.00;3.30;;;;;;;21.13;100.00;101317.41;5226073;28;20117;-64
2022/09/06 10:08:45;;;;;;;20.70;4.18;;;;;;;21.18;100.00;101328.59;5233033;28;20108;-69
2022/09/06 10:11:56;;;;;;;5.07;2.97;;;;;;;21.18;100.00;101338.63;5228086;28;20039;-67
2022/09/06 10:14:30;;;;;;;6.88;3.25;;;;;;;21.48;100.00;101345.16;5229587;28;20118;-68
2022/09/06 10:17:02;;;;;;;8.75;3.85;;;;;;;21.54;100.00;101331.69;5232327;28;20055;-74
2022/09/06 10:19:39;;;;;;;11.05;4.13;;;;;;;21.40;100.00;101343.28;5227819;28;20531;-67
2022/09/06 10:22:27;;;;;;;8.13;4.18;;;;;;;21.10;100.00;101331.34;5222527;28;20116;-70
2022/09/06 10:25:35;;;;;;;5.65;3.55;;;;;;;20.75;100.00;101338.91;5228169;28;20037;-72
2022/09/06 10:28:21;;;;;;;7.50;4.13;;;;;;;20.77;100.00;101345.00;5232345;28;20416;-72
2022/09/06 10:31:14;;;;;;;14.48;4.88;;;;;;;20.90;100.00;101336.31;5226468;28;20045;-73
2022/09/06 10:34:23;;;;;;;7.93;4.63;;;;;;;20.90;100.00;101331.75;5230779;28;20029;-71
2022/09/06 10:37:27;;;;;;;26.83;5.63;;;;;;;21.05;100.00;101328.31;5226164;28;20612;-71
2022/09/06 10:40:08;;;;;;;5.78;4.32;;;;;;;20.97;100.00;101326.47;5230964;28;20045;-70
2022/09/06 10:42:47;;;;;;;7.75;4.20;;;;;;;21.02;100.00;101331.38;5232932;28;20132;-71
2022/09/06 10:45:30;;;;;;;7.50;4.07;;;;;;;21.12;100.00;101322.00;5216857;28;20044;-72
2022/09/06 10:48:13;;;;;;;6.45;4.38;;;;;;;21.14;100.00;101322.66;5235727;28;20033;-72
2022/09/06 10:51:40;;;;;;;6.45;4.70;;;;;;;21.05;100.00;101328.31;5227866;28;20022;-73
2022/09/06 10:54:13;;;;;;;7.28;4.18;;;;;;;21.14;100.00;101332.69;5220546;28;20047;-72
2022/09/06 10:56:57;;;;;;;7.30;4.60;;;;;;;21.17;100.00;101320.63;5228933;28;20029;-72
2022/09/06 10:59:48;;;;;;;8.00;3.70;;;;;;;21.22;100.00;101316.38;5243628;28;20394;-73
2022/09/06 11:02:19;;;;;;;5.75;4.28;;;;;;;21.35;100.00;101326.66;5227345;28;20040;-73
2022/09/06 11:04:51;;;;;;;5.93;3.50;;;;;;;21.42;100.00;101326.78;5231193;28;20021;-73
2022/09/06 11:07:27;;;;;;;9.27;4.38;;;;;;;21.51;100.00;101332.03;5229908;28;20495;-73
2022/09/06 11:10:07;;;;;;;6.45;4.05;;;;;;;21.43;100.00;101333.94;5227542;28;20044;-73
2022/09/06 11:12:46;;;;;;;6.47;4.20;;;;;;;21.60;100.00;101337.44;5223640;28;20096;-73
2022/09/06 11:15:20;;;;;;;5.88;3.92;;;;;;;21.63;100.00;101332.50;5228995;28;20530;-73
2022/09/06 11:18:03;;;;;;;6.53;3.97;;;;;;;21.61;100.00;101339.13;5232928;28;20026;-75
2022/09/06 11:20:44;;;;;;;8.48;4.40;;;;;;;21.79;100.00;101345.13;5248346;28;20091;-75
2022/09/06 11:23:24;;;;;;;7.85;4.20;;;;;;;21.80;100.00;101352.25;5235478;28;20127;-76
2022/09/06 11:26:06;;;;;;;6.55;4.03;;;;;;;21.77;100.00;101351.78;5230507;28;20048;-74
2022/09/06 11:28:43;;;;;;;8.10;4.03;;;;;;;22.07;100.00;101353.63;5229425;28;20604;-74
2022/09/06 11:31:22;;;;;;;4.68;3.47;;;;;;;21.98;100.00;101353.88;5235229;28;20034;-72
2022/09/06 11:34:27;;;;;;;7.57;4.63;;;;;;;21.91;100.00;101346.41;5231827;28;20552;-74
2022/09/06 11:37:32;;;;;;;6.53;3.60;;;;;;;21.95;100.00;101351.50;5228709;28;20025;-74
2022/09/06 11:40:23;;;;;;;7.10;4.00;;;;;;;22.06;100.00;101345.66;5225518;28;20033;-74
2022/09/06 11:42:55;;;;;;;6.53;3.20;;;;;;;22.10;100.00;101345.09;5237638;28;20088;-74
2022/09/06 11:45:49;;;;;;;5.80;3.63;;;;;;;22.12;100.00;101339.47;5234363;28;20538;-74